Blue Star Patmos — SVBF8 — position and weather

sailwx.info

Track history (hours):
 
Tides and Currents Weather Stations Pressure Air Temp Water Temp Dewpoint Dewpoint Depression Visibility Wind Speed Wind Dir Waves Ship Positions

Blue Star Patmos

Last reported at 2018-Feb-20 08:00 UTC. Time now 2018-Feb-20 08:08 UTC.
Position N 37°56' E 023°38'.

Length 145 m; draft 5.3 m.

Type: Ship. MMSI: 241159000.

Date/timePositionNaut miles runAvg speedWind from/ knotsBaromVisibWave heightAir tempDewpointWater temp
2018-Feb-20 08:00N 37°56' E 023°38'816.8
2018-Feb-20 07:30N 37°49' E 023°41'1020.6
2018-Feb-20 07:00N 37°40' E 023°47'  
2018-Feb-17 16:05N 37°39' E 023°45'218.6
2018-Feb-17 15:59N 37°40' E 023°43'919.2
2018-Feb-17 15:31N 37°48' E 023°38'816.2
2018-Feb-17 15:00N 37°56' E 023°37'0 0.0
2018-Feb-17 14:30N 37°56' E 023°37'0 0.0
2018-Feb-17 14:00N 37°56' E 023°37'0 0.0
2018-Feb-17 13:30N 37°56' E 023°37'0 0.0
2018-Feb-17 13:00N 37°56' E 023°37'0 0.0
2018-Feb-17 12:30N 37°56' E 023°37'0 0.0
2018-Feb-17 12:00N 37°56' E 023°37'0 0.0
2018-Feb-17 11:30N 37°56' E 023°37'0 0.0
2018-Feb-17 11:00N 37°56' E 023°37'3 5.1
2018-Feb-17 10:31N 37°54' E 023°38'1020.0
2018-Feb-17 10:00N 37°45' E 023°43'2619.4
2018-Feb-17 08:41N 37°32' E 024°12'2719.9
2018-Feb-17 07:19N 37°24' E 024°44'620.0
2018-Feb-17 07:00N 37°21' E 024°51'1019.9
2018-Feb-17 06:30N 37°19' E 025°04'1020.3
2018-Feb-17 06:00N 37°18' E 025°16'1020.4
2018-Feb-17 05:30N 37°18' E 025°29'1019.2
2018-Feb-17 05:00N 37°14' E 025°40'7 0.2
2018-Feb-15 19:45N 37°10' E 025°48'519.2
2018-Feb-15 19:31N 37°11' E 025°42'1018.8
2018-Feb-15 18:59N 37°13' E 025°30'919.4
2018-Feb-15 18:31N 37°16' E 025°19'1019.5
2018-Feb-15 18:01N 37°18' E 025°07'1019.7
2018-Feb-15 17:30N 37°20' E 024°55'5819.5
2018-Feb-15 14:31N 37°39' E 023°45'120.1
2018-Feb-15 14:27N 37°40' E 023°44'919.8
2018-Feb-15 14:00N 37°48' E 023°38'917.9
2018-Feb-15 13:31N 37°56' E 023°37'0 0.0
2018-Feb-15 13:01N 37°56' E 023°37'0 0.0
2018-Feb-15 12:30N 37°56' E 023°37'0 0.0
2018-Feb-15 12:01N 37°56' E 023°37'0 0.0
2018-Feb-15 11:30N 37°56' E 023°37'0 0.0
2018-Feb-15 11:01N 37°56' E 023°37'0 0.0
2018-Feb-15 10:31N 37°56' E 023°37'0 0.0
2018-Feb-15 10:01N 37°56' E 023°37'0 0.0
2018-Feb-15 09:30N 37°56' E 023°37'0 0.0
2018-Feb-15 09:00N 37°56' E 023°37'611.5
2018-Feb-15 08:30N 37°51' E 023°40'1020.8
2018-Feb-15 08:00N 37°42' E 023°45'2320.5
2018-Feb-15 06:53N 37°32' E 024°12'2720.8
2018-Feb-15 05:36N 37°24' E 024°44'220.9
2018-Feb-15 05:30N 37°23' E 024°46'1020.5
2018-Feb-15 05:00N 37°20' E 024°59'1020.7
2018-Feb-15 04:30N 37°19' E 025°12'1020.6
2018-Feb-15 04:00N 37°19' E 025°25'1220.4
2018-Feb-15 03:24N 37°18' E 025°40'820.5
2018-Feb-15 03:00N 37°17' E 025°50'3 0.1
2018-Feb-13 18:52N 37°18' E 025°53'822.3
2018-Feb-13 18:30N 37°19' E 025°43'1122.3
2018-Feb-13 18:00N 37°19' E 025°29'1122.5
2018-Feb-13 17:30N 37°20' E 025°15'1122.5
2018-Feb-13 17:01N 37°20' E 025°01'1122.1
2018-Feb-13 16:30N 37°22' E 024°48'5222.2
2018-Feb-13 14:10N 37°40' E 023°46'421.5
2018-Feb-13 13:58N 37°43' E 023°41'1022.0
2018-Feb-13 13:31N 37°52' E 023°37'5 9.0
2018-Feb-13 13:00N 37°56' E 023°37'0 0.0
2018-Feb-13 12:30N 37°56' E 023°37'0 0.0
2018-Feb-13 12:00N 37°56' E 023°37'0 0.0
2018-Feb-13 11:30N 37°56' E 023°37'0 0.0
2018-Feb-13 11:00N 37°56' E 023°37'0 0.0
2018-Feb-13 10:30N 37°56' E 023°37'0 0.0
2018-Feb-13 10:00N 37°56' E 023°37'0 0.0
2018-Feb-13 09:30N 37°56' E 023°37'0 0.0
2018-Feb-13 09:00N 37°56' E 023°37'0 0.0
2018-Feb-13 08:30N 37°56' E 023°37'0 0.1
2018-Feb-13 08:01N 37°56' E 023°37'816.9
2018-Feb-13 07:30N 37°48' E 023°41'1020.4
2018-Feb-13 07:01N 37°40' E 023°47'  
2018-Feb-10 21:17N 37°07' E 025°44'519.2
2018-Feb-10 21:00N 37°10' E 025°39'918.6
2018-Feb-10 20:30N 37°14' E 025°28'1121.1
2018-Feb-10 20:00N 37°16' E 025°15'1121.4
2018-Feb-10 19:30N 37°19' E 025°02'1122.1
2018-Feb-10 19:00N 37°22' E 024°49'5421.9
2018-Feb-10 16:32N 37°39' E 023°44'121.7
2018-Feb-10 16:31N 37°40' E 023°44'1121.3
2018-Feb-10 16:00N 37°49' E 023°38'714.4
2018-Feb-10 15:30N 37°56' E 023°37'0 0.0
2018-Feb-10 15:00N 37°56' E 023°37'0 0.0
2018-Feb-10 14:30N 37°56' E 023°37'0 0.0
2018-Feb-10 14:00N 37°56' E 023°37'0 0.0
2018-Feb-10 13:30N 37°56' E 023°37'0 0.0
2018-Feb-10 13:00N 37°56' E 023°37'0 0.0
2018-Feb-10 12:30N 37°56' E 023°37'0 0.0
2018-Feb-10 12:00N 37°56' E 023°37'0 0.0
2018-Feb-10 11:30N 37°56' E 023°37'0 0.0
2018-Feb-10 11:00N 37°56' E 023°37'510.4
2018-Feb-10 10:30N 37°52' E 023°39'918.9
2018-Feb-10 10:00N 37°43' E 023°45'2418.7
2018-Feb-10 08:43N 37°32' E 024°12'  
Track history (hours):
 
Tides and Currents Weather Stations Pressure Air Temp Water Temp Dewpoint Dewpoint Depression Visibility Wind Speed Wind Dir Waves Ship Positions

Blue Star Patmos

Last reported at 2018-Feb-20 08:00 UTC. Time now 2018-Feb-20 08:08 UTC.
Position N 37°56' E 023°38'.

Length 145 m; draft 5.3 m.

Type: Ship. MMSI: 241159000.

Date/timePositionNaut miles runAvg speedWind from/ knotsBaromVisibWave heightAir tempDewpointWater temp
2018-Feb-20 08:00N 37°56' E 023°38'816.8
2018-Feb-20 07:30N 37°49' E 023°41'1020.6
2018-Feb-20 07:00N 37°40' E 023°47'  
2018-Feb-17 16:05N 37°39' E 023°45'218.6
2018-Feb-17 15:59N 37°40' E 023°43'919.2
2018-Feb-17 15:31N 37°48' E 023°38'816.2
2018-Feb-17 15:00N 37°56' E 023°37'0 0.0
2018-Feb-17 14:30N 37°56' E 023°37'0 0.0
2018-Feb-17 14:00N 37°56' E 023°37'0 0.0
2018-Feb-17 13:30N 37°56' E 023°37'0 0.0
2018-Feb-17 13:00N 37°56' E 023°37'0 0.0
2018-Feb-17 12:30N 37°56' E 023°37'0 0.0
2018-Feb-17 12:00N 37°56' E 023°37'0 0.0
2018-Feb-17 11:30N 37°56' E 023°37'0 0.0
2018-Feb-17 11:00N 37°56' E 023°37'3 5.1
2018-Feb-17 10:31N 37°54' E 023°38'1020.0
2018-Feb-17 10:00N 37°45' E 023°43'2619.4
2018-Feb-17 08:41N 37°32' E 024°12'2719.9
2018-Feb-17 07:19N 37°24' E 024°44'620.0
2018-Feb-17 07:00N 37°21' E 024°51'1019.9
2018-Feb-17 06:30N 37°19' E 025°04'1020.3
2018-Feb-17 06:00N 37°18' E 025°16'1020.4
2018-Feb-17 05:30N 37°18' E 025°29'1019.2
2018-Feb-17 05:00N 37°14' E 025°40'7 0.2
2018-Feb-15 19:45N 37°10' E 025°48'519.2
2018-Feb-15 19:31N 37°11' E 025°42'1018.8
2018-Feb-15 18:59N 37°13' E 025°30'919.4
2018-Feb-15 18:31N 37°16' E 025°19'1019.5
2018-Feb-15 18:01N 37°18' E 025°07'1019.7
2018-Feb-15 17:30N 37°20' E 024°55'5819.5
2018-Feb-15 14:31N 37°39' E 023°45'120.1
2018-Feb-15 14:27N 37°40' E 023°44'919.8
2018-Feb-15 14:00N 37°48' E 023°38'917.9
2018-Feb-15 13:31N 37°56' E 023°37'0 0.0
2018-Feb-15 13:01N 37°56' E 023°37'0 0.0
2018-Feb-15 12:30N 37°56' E 023°37'0 0.0
2018-Feb-15 12:01N 37°56' E 023°37'0 0.0
2018-Feb-15 11:30N 37°56' E 023°37'0 0.0
2018-Feb-15 11:01N 37°56' E 023°37'0 0.0
2018-Feb-15 10:31N 37°56' E 023°37'0 0.0
2018-Feb-15 10:01N 37°56' E 023°37'0 0.0
2018-Feb-15 09:30N 37°56' E 023°37'0 0.0
2018-Feb-15 09:00N 37°56' E 023°37'611.5
2018-Feb-15 08:30N 37°51' E 023°40'1020.8
2018-Feb-15 08:00N 37°42' E 023°45'2320.5
2018-Feb-15 06:53N 37°32' E 024°12'2720.8
2018-Feb-15 05:36N 37°24' E 024°44'220.9
2018-Feb-15 05:30N 37°23' E 024°46'1020.5
2018-Feb-15 05:00N 37°20' E 024°59'1020.7
2018-Feb-15 04:30N 37°19' E 025°12'1020.6
2018-Feb-15 04:00N 37°19' E 025°25'1220.4
2018-Feb-15 03:24N 37°18' E 025°40'820.5
2018-Feb-15 03:00N 37°17' E 025°50'3 0.1
2018-Feb-13 18:52N 37°18' E 025°53'822.3
2018-Feb-13 18:30N 37°19' E 025°43'1122.3
2018-Feb-13 18:00N 37°19' E 025°29'1122.5
2018-Feb-13 17:30N 37°20' E 025°15'1122.5
2018-Feb-13 17:01N 37°20' E 025°01'1122.1
2018-Feb-13 16:30N 37°22' E 024°48'5222.2
2018-Feb-13 14:10N 37°40' E 023°46'421.5
2018-Feb-13 13:58N 37°43' E 023°41'1022.0
2018-Feb-13 13:31N 37°52' E 023°37'5 9.0
2018-Feb-13 13:00N 37°56' E 023°37'0 0.0
2018-Feb-13 12:30N 37°56' E 023°37'0 0.0
2018-Feb-13 12:00N 37°56' E 023°37'0 0.0
2018-Feb-13 11:30N 37°56' E 023°37'0 0.0
2018-Feb-13 11:00N 37°56' E 023°37'0 0.0
2018-Feb-13 10:30N 37°56' E 023°37'0 0.0
2018-Feb-13 10:00N 37°56' E 023°37'0 0.0
2018-Feb-13 09:30N 37°56' E 023°37'0 0.0
2018-Feb-13 09:00N 37°56' E 023°37'0 0.0
2018-Feb-13 08:30N 37°56' E 023°37'0 0.1
2018-Feb-13 08:01N 37°56' E 023°37'816.9
2018-Feb-13 07:30N 37°48' E 023°41'1020.4
2018-Feb-13 07:01N 37°40' E 023°47'  
2018-Feb-10 21:17N 37°07' E 025°44'519.2
2018-Feb-10 21:00N 37°10' E 025°39'918.6
2018-Feb-10 20:30N 37°14' E 025°28'1121.1
2018-Feb-10 20:00N 37°16' E 025°15'1121.4
2018-Feb-10 19:30N 37°19' E 025°02'1122.1
2018-Feb-10 19:00N 37°22' E 024°49'5421.9
2018-Feb-10 16:32N 37°39' E 023°44'121.7
2018-Feb-10 16:31N 37°40' E 023°44'1121.3
2018-Feb-10 16:00N 37°49' E 023°38'714.4
2018-Feb-10 15:30N 37°56' E 023°37'0 0.0
2018-Feb-10 15:00N 37°56' E 023°37'0 0.0
2018-Feb-10 14:30N 37°56' E 023°37'0 0.0
2018-Feb-10 14:00N 37°56' E 023°37'0 0.0
2018-Feb-10 13:30N 37°56' E 023°37'0 0.0
2018-Feb-10 13:00N 37°56' E 023°37'0 0.0
2018-Feb-10 12:30N 37°56' E 023°37'0 0.0
2018-Feb-10 12:00N 37°56' E 023°37'0 0.0
2018-Feb-10 11:30N 37°56' E 023°37'0 0.0
2018-Feb-10 11:00N 37°56' E 023°37'510.4
2018-Feb-10 10:30N 37°52' E 023°39'918.9
2018-Feb-10 10:00N 37°43' E 023°45'2418.7
2018-Feb-10 08:43N 37°32' E 024°12'  

Dump ship's entire track history